Time;durP1;ratioP1;P1;durP2;ratioP2;P2;SDS_P1;SDS_P2;PMS_P1;PMS_P2;Temp;Humidity;BMP_temperature;BMP_pressure;BME280_temperature;BME280_humidity;BME280_pressure;Samples;Min_cycle;Max_cycle;Signal;HPM_P1;HPM_P2
2024/02/12 00:00:32;;;;;;;3.00;1.35;;;;;;;3.07;100.00;98882.50;4995295;28;20050;-60
2024/02/12 00:03:00;;;;;;;4.50;1.10;;;;;;;3.06;100.00;98880.94;5000259;28;20125;-61
2024/02/12 00:05:27;;;;;;;4.85;2.63;;;;;;;3.06;100.00;98885.59;5000855;28;20513;-61
2024/02/12 00:07:55;;;;;;;3.25;1.27;;;;;;;3.03;100.00;98887.09;4975010;28;20061;-61
2024/02/12 00:10:24;;;;;;;1.77;1.00;;;;;;;3.03;100.00;98891.75;5001185;28;20041;-61
2024/02/12 00:12:52;;;;;;;2.03;1.10;;;;;;;3.02;100.00;98885.47;5004665;28;20046;-61
2024/02/12 00:15:21;;;;;;;2.13;1.27;;;;;;;3.00;100.00;98893.22;5000925;28;20053;-60
2024/02/12 00:17:49;;;;;;;5.35;1.20;;;;;;;2.97;100.00;98893.91;4988144;28;20164;-61
2024/02/12 00:20:16;;;;;;;5.30;1.55;;;;;;;2.96;100.00;98896.97;5002664;28;20046;-60
2024/02/12 00:22:44;;;;;;;2.22;1.00;;;;;;;2.95;100.00;98896.19;5006004;28;20049;-60
2024/02/12 00:25:12;;;;;;;3.22;1.33;;;;;;;2.94;100.00;98897.31;5006256;28;20057;-61
2024/02/12 00:27:40;;;;;;;5.78;2.17;;;;;;;2.94;100.00;98893.78;5007121;28;20046;-61
2024/02/12 00:30:09;;;;;;;5.90;1.35;;;;;;;2.91;100.00;98906.19;5006391;28;20408;-61
2024/02/12 00:32:37;;;;;;;1.13;0.80;;;;;;;2.91;100.00;98895.25;5007540;28;20087;-61
2024/02/12 00:35:05;;;;;;;3.63;1.10;;;;;;;2.89;100.00;98892.06;5007036;28;20077;-60
2024/02/12 00:37:34;;;;;;;1.92;1.13;;;;;;;2.87;100.00;98904.47;5006772;28;20054;-61
2024/02/12 00:40:08;;;;;;;2.00;1.00;;;;;;;2.85;100.00;98907.56;5006891;28;20042;-60
2024/02/12 00:42:38;;;;;;;3.03;1.52;;;;;;;2.83;100.00;98909.03;4987956;28;20054;-61
2024/02/12 00:45:10;;;;;;;1.52;0.98;;;;;;;2.83;100.00;98903.56;4993696;28;20046;-61
2024/02/12 00:47:39;;;;;;;5.13;1.42;;;;;;;2.82;100.00;98912.91;5006814;28;20053;-61
2024/02/12 00:50:08;;;;;;;2.85;1.50;;;;;;;2.81;100.00;98906.63;4976278;28;20049;-60
2024/02/12 00:52:37;;;;;;;3.45;1.15;;;;;;;2.80;100.00;98905.03;5000790;28;20061;-61
2024/02/12 00:55:07;;;;;;;1.77;1.02;;;;;;;2.78;100.00;98910.03;5006572;28;20052;-60
2024/02/12 00:57:35;;;;;;;11.18;3.42;;;;;;;2.78;100.00;98923.69;4992351;28;20046;-60
2024/02/12 01:00:12;;;;;;;2.15;0.85;;;;;;;2.77;100.00;98922.13;4995329;28;20054;-60
2024/02/12 01:02:42;;;;;;;3.08;1.23;;;;;;;2.75;100.00;98921.66;5006442;28;20072;-60
2024/02/12 01:05:10;;;;;;;2.58;1.13;;;;;;;2.77;100.00;98932.25;5006253;28;20057;-61
2024/02/12 01:07:41;;;;;;;2.97;1.00;;;;;;;2.76;100.00;98939.63;5006342;28;20048;-60
2024/02/12 01:10:09;;;;;;;3.25;1.10;;;;;;;2.76;100.00;98941.56;4992706;28;20047;-60
2024/02/12 01:12:39;;;;;;;2.55;1.08;;;;;;;2.75;100.00;98946.25;5004736;28;20042;-60
2024/02/12 01:15:09;;;;;;;0.73;0.50;;;;;;;2.74;100.00;98943.84;5000958;28;20042;-60
2024/02/12 01:17:37;;;;;;;0.98;0.63;;;;;;;2.71;100.00;98942.59;5006179;28;20061;-61
2024/02/12 01:20:14;;;;;;;2.70;0.70;;;;;;;2.71;100.00;98936.31;5006319;28;20058;-60
2024/02/12 01:22:41;;;;;;;3.15;0.80;;;;;;;2.68;100.00;98940.53;5005610;28;20038;-59
2024/02/12 01:25:09;;;;;;;2.92;0.70;;;;;;;2.66;100.00;98937.34;5005957;28;20064;-61
2024/02/12 01:27:38;;;;;;;1.90;0.60;;;;;;;2.66;100.00;98931.88;5006707;28;20049;-60
2024/02/12 01:30:06;;;;;;;3.75;1.00;;;;;;;2.65;100.00;98933.00;5005715;28;20053;-60
2024/02/12 01:32:33;;;;;;;3.38;1.92;;;;;;;2.65;100.00;98935.72;5006199;28;20114;-60
2024/02/12 01:35:01;;;;;;;1.25;0.60;;;;;;;2.63;100.00;98943.47;5005651;28;20492;-59
2024/02/12 01:37:28;;;;;;;0.60;0.60;;;;;;;2.62;100.00;98941.09;5006379;28;20439;-60
2024/02/12 01:39:56;;;;;;;3.35;0.85;;;;;;;2.62;100.00;98946.53;5000226;28;20060;-61
2024/02/12 01:42:23;;;;;;;3.30;0.60;;;;;;;2.60;100.00;98943.31;5006523;28;20049;-61
2024/02/12 01:45:11;;;;;;;1.27;0.65;;;;;;;2.58;100.00;98951.88;4992881;28;20057;-61
2024/02/12 01:47:41;;;;;;;2.45;0.60;;;;;;;2.55;100.00;98946.28;5005208;28;20677;-60
2024/02/12 01:50:15;;;;;;;1.30;0.52;;;;;;;2.52;100.00;98958.66;5008892;28;20057;-61
2024/02/12 01:52:49;;;;;;;6.38;1.52;;;;;;;2.52;100.00;98976.97;4995882;28;20774;-60
2024/02/12 01:55:23;;;;;;;0.90;0.52;;;;;;;2.49;100.00;98975.72;4999851;28;20054;-60
2024/02/12 01:57:52;;;;;;;2.35;0.63;;;;;;;2.49;100.00;98966.75;5006174;28;20058;-59
2024/02/12 02:00:23;;;;;;;4.22;1.13;;;;;;;2.50;100.00;98974.59;4990001;28;20709;-60
2024/02/12 02:02:51;;;;;;;3.08;0.50;;;;;;;2.50;100.00;98984.72;5003200;28;20062;-59
2024/02/12 02:05:18;;;;;;;2.70;0.60;;;;;;;2.49;100.00;98981.19;5001723;28;20049;-60
2024/02/12 02:07:52;;;;;;;0.98;0.65;;;;;;;2.46;100.00;98984.63;5009524;28;20046;-60
2024/02/12 02:10:20;;;;;;;2.85;0.70;;;;;;;2.47;100.00;98988.91;5007209;28;20056;-61
2024/02/12 02:12:48;;;;;;;1.02;0.80;;;;;;;2.45;100.00;98986.53;4984679;28;20050;-60
2024/02/12 02:15:16;;;;;;;1.42;0.73;;;;;;;2.44;100.00;98990.41;4996747;28;20050;-59
2024/02/12 02:17:43;;;;;;;2.88;1.20;;;;;;;2.43;100.00;98994.28;5002099;28;20042;-60
2024/02/12 02:20:12;;;;;;;6.07;1.10;;;;;;;2.43;100.00;98994.28;5003438;28;20396;-60
2024/02/12 02:22:40;;;;;;;1.98;1.45;;;;;;;2.43;100.00;98997.00;5009093;28;20424;-60
2024/02/12 02:25:11;;;;;;;3.00;0.90;;;;;;;2.44;100.00;98989.59;5009372;28;20042;-60
2024/02/12 02:27:38;;;;;;;6.18;1.00;;;;;;;2.44;100.00;98995.84;5009344;28;20079;-59
2024/02/12 02:30:09;;;;;;;4.07;0.88;;;;;;;2.44;100.00;99001.31;5009120;28;20785;-60
2024/02/12 02:32:40;;;;;;;1.88;1.00;;;;;;;2.43;100.00;99007.13;5009655;28;20064;-61
2024/02/12 02:35:08;;;;;;;4.70;0.68;;;;;;;2.42;100.00;99011.78;5009206;28;20109;-61
2024/02/12 02:37:36;;;;;;;2.28;0.50;;;;;;;2.42;100.00;99017.25;5003934;28;20053;-61
2024/02/12 02:40:04;;;;;;;1.60;0.85;;;;;;;2.41;100.00;99012.09;4994493;28;20582;-61
2024/02/12 02:42:31;;;;;;;3.90;0.70;;;;;;;2.39;100.00;99008.91;5009377;28;20042;-60
2024/02/12 02:44:58;;;;;;;3.35;1.52;;;;;;;2.39;100.00;99019.84;4995807;28;20435;-61
2024/02/12 02:47:26;;;;;;;1.42;0.70;;;;;;;2.39;100.00;99017.09;4998872;28;20717;-60
2024/02/12 02:49:54;;;;;;;5.90;0.88;;;;;;;2.36;100.00;99026.75;5002386;28;20045;-61
2024/02/12 02:52:22;;;;;;;1.35;0.93;;;;;;;2.33;100.00;99027.41;5000525;28;20050;-61
2024/02/12 02:54:50;;;;;;;3.28;1.05;;;;;;;2.32;100.00;99030.50;4995039;28;20038;-60
2024/02/12 02:57:18;;;;;;;1.23;0.70;;;;;;;2.30;100.00;99035.50;5008862;28;20046;-60
2024/02/12 02:59:46;;;;;;;1.17;0.75;;;;;;;2.28;100.00;99029.53;5008058;28;20048;-61
2024/02/12 03:02:14;;;;;;;5.03;0.80;;;;;;;2.27;100.00;99031.50;5056404;23;20059;-58
2024/02/12 03:04:43;;;;;;;6.03;0.70;;;;;;;2.26;100.00;99031.81;4969821;28;20043;-56
2024/02/12 03:07:11;;;;;;;2.80;0.80;;;;;;;2.23;100.00;99038.75;4969218;28;20055;-57
2024/02/12 03:09:39;;;;;;;5.13;2.15;;;;;;;2.22;100.00;99042.63;4960354;28;20055;-58
2024/02/12 03:12:07;;;;;;;1.75;0.85;;;;;;;2.20;100.00;99041.31;4969486;28;20051;-56
2024/02/12 03:14:35;;;;;;;1.20;0.85;;;;;;;2.20;100.00;99044.06;4969303;28;20054;-57
2024/02/12 03:17:03;;;;;;;3.78;0.98;;;;;;;2.16;100.00;99040.41;4969570;28;20074;-56
2024/02/12 03:19:31;;;;;;;1.95;0.80;;;;;;;2.14;100.00;99046.22;4969883;28;20051;-54
2024/02/12 03:21:58;;;;;;;3.00;1.30;;;;;;;2.14;100.00;99056.31;4969052;28;20727;-56
2024/02/12 03:24:28;;;;;;;5.72;1.63;;;;;;;2.12;100.00;99050.41;4970153;28;20055;-58
2024/02/12 03:26:57;;;;;;;4.50;1.30;;;;;;;2.11;100.00;99048.78;4973064;28;20066;-58
2024/02/12 03:29:27;;;;;;;6.50;0.63;;;;;;;2.10;100.00;99049.91;4969282;28;20068;-57
2024/02/12 03:31:55;;;;;;;2.67;0.80;;;;;;;2.08;100.00;99049.44;4969041;28;20500;-59
2024/02/12 03:34:22;;;;;;;3.63;0.73;;;;;;;2.07;100.00;99053.28;4969665;28;20058;-58
2024/02/12 03:36:50;;;;;;;3.55;1.05;;;;;;;2.05;100.00;99055.56;4953649;28;20055;-54
2024/02/12 03:39:17;;;;;;;5.07;0.60;;;;;;;2.04;100.00;99057.47;4963883;28;20050;-54
2024/02/12 03:41:45;;;;;;;5.05;0.85;;;;;;;2.04;100.00;99062.16;4968469;28;20051;-57
2024/02/12 03:44:13;;;;;;;6.05;0.75;;;;;;;2.02;100.00;99058.94;4968263;28;20609;-55
2024/02/12 03:46:45;;;;;;;1.63;0.82;;;;;;;2.01;100.00;99068.28;4952074;28;20539;-53
2024/02/12 04:00:24;;;;;;;3.37;0.60;;;;;;;1.94;100.00;99065.25;4962455;28;20050;-58
2024/02/12 04:02:51;;;;;;;4.03;0.98;;;;;;;1.92;100.00;99070.25;4968899;28;20469;-58
2024/02/12 04:05:19;;;;;;;2.05;0.85;;;;;;;1.91;100.00;99069.44;4968781;28;20061;-54
2024/02/12 04:07:46;;;;;;;4.75;0.90;;;;;;;1.90;100.00;99073.31;4968840;28;20054;-56
2024/02/12 04:10:14;;;;;;;2.05;0.80;;;;;;;1.89;100.00;99076.34;4967281;28;20506;-54
2024/02/12 04:12:43;;;;;;;2.35;0.88;;;;;;;1.88;100.00;99082.94;4967965;28;20386;-56
2024/02/12 04:15:15;;;;;;;2.60;1.20;;;;;;;1.86;100.00;99069.63;4955767;28;20799;-58
2024/02/12 04:17:43;;;;;;;4.28;0.73;;;;;;;1.85;100.00;99076.22;4968743;28;20054;-58
2024/02/12 04:20:11;;;;;;;2.28;0.75;;;;;;;1.84;100.00;99075.41;4950960;28;20062;-58
2024/02/12 04:22:39;;;;;;;5.55;1.15;;;;;;;1.84;100.00;99082.81;4983383;28;20054;-57
2024/02/12 04:25:08;;;;;;;4.25;1.15;;;;;;;1.84;100.00;99080.88;4968894;28;20711;-57
2024/02/12 04:27:35;;;;;;;1.17;0.52;;;;;;;1.83;100.00;99076.53;4968805;28;20436;-57
2024/02/12 04:30:04;;;;;;;4.78;1.20;;;;;;;1.83;100.00;99089.38;4967724;28;20054;-55
2024/02/12 04:32:33;;;;;;;4.50;1.35;;;;;;;1.83;100.00;99092.09;4968408;28;20057;-57
2024/02/12 04:35:05;;;;;;;4.07;1.17;;;;;;;1.80;100.00;99087.31;4965296;28;20039;-58
2024/02/12 04:37:33;;;;;;;5.28;1.67;;;;;;;1.79;100.00;99089.25;4968238;28;20054;-57
2024/02/12 04:40:02;;;;;;;1.20;0.80;;;;;;;1.79;100.00;99093.91;4967970;28;20046;-57
2024/02/12 04:42:30;;;;;;;3.63;1.42;;;;;;;1.79;100.00;99094.72;4968994;28;20416;-58
2024/02/12 04:44:57;;;;;;;1.35;0.85;;;;;;;1.80;100.00;99095.50;4967917;28;20051;-57
2024/02/12 04:47:24;;;;;;;6.97;0.98;;;;;;;1.79;100.00;99102.09;4969504;28;20535;-56
2024/02/12 04:49:52;;;;;;;3.35;0.85;;;;;;;1.80;100.00;99109.16;4964273;28;20413;-57
2024/02/12 04:52:20;;;;;;;3.83;0.75;;;;;;;1.80;100.00;99107.19;4969190;28;20051;-58
2024/02/12 04:54:47;;;;;;;6.53;1.10;;;;;;;1.79;100.00;99110.28;4968631;28;20034;-58
2024/02/12 04:57:14;;;;;;;4.22;1.00;;;;;;;1.79;100.00;99105.63;4968433;28;20515;-54
2024/02/12 04:59:42;;;;;;;1.75;0.68;;;;;;;1.80;100.00;99111.88;4967723;28;20051;-58
2024/02/12 05:02:09;;;;;;;5.03;0.95;;;;;;;1.81;100.00;99124.38;4968557;28;20413;-57
2024/02/12 05:04:37;;;;;;;4.38;1.10;;;;;;;1.79;100.00;99132.09;4967781;28;20046;-57
2024/02/12 05:07:06;;;;;;;4.38;0.80;;;;;;;1.79;100.00;99132.91;4968733;28;20051;-56
2024/02/12 05:09:34;;;;;;;9.70;1.20;;;;;;;1.80;100.00;99139.16;4966846;28;20497;-57
2024/02/12 05:12:02;;;;;;;6.20;1.60;;;;;;;1.77;100.00;99146.03;4968068;28;20078;-58
2024/02/12 05:14:32;;;;;;;2.58;0.95;;;;;;;1.78;100.00;99146.84;4968309;28;20578;-58
2024/02/12 05:17:03;;;;;;;6.45;1.10;;;;;;;1.76;100.00;99143.66;4967407;28;20062;-57
2024/02/12 05:22:35;;;;;;;2.47;0.90;;;;;;;1.74;100.00;99152.19;4963380;28;20051;-58
2024/02/12 05:25:05;;;;;;;3.55;2.08;;;;;;;1.74;100.00;99156.81;4968005;28;20058;-58
2024/02/12 05:27:34;;;;;;;4.63;1.02;;;;;;;1.72;100.00;99159.88;4967733;28;20050;-57
2024/02/12 05:30:01;;;;;;;5.32;1.02;;;;;;;1.72;100.00;99165.31;4965729;28;20058;-57
2024/02/12 05:32:29;;;;;;;3.45;1.50;;;;;;;1.72;100.00;99164.53;4967914;28;20051;-56
2024/02/12 05:34:56;;;;;;;2.17;1.10;;;;;;;1.71;100.00;99165.66;4966814;28;20058;-57
2024/02/12 05:37:24;;;;;;;7.60;0.80;;;;;;;1.71;100.00;99177.38;4967557;28;20055;-58
2024/02/12 05:39:51;;;;;;;5.30;1.23;;;;;;;1.71;100.00;99171.91;4967081;28;20420;-56
2024/02/12 05:42:18;;;;;;;1.70;0.70;;;;;;;1.71;100.00;99179.28;4982195;28;20054;-56
2024/02/12 05:44:46;;;;;;;5.60;0.95;;;;;;;1.70;100.00;99192.13;4967692;28;20897;-54
2024/02/12 05:47:14;;;;;;;5.30;0.90;;;;;;;1.69;100.00;99179.63;4967302;28;20850;-55
2024/02/12 05:49:44;;;;;;;10.30;2.42;;;;;;;1.70;100.00;99169.50;4966589;28;20070;-58
2024/02/12 05:52:12;;;;;;;5.35;1.60;;;;;;;1.69;100.00;99179.63;4967582;28;20047;-57
2024/02/12 05:54:41;;;;;;;2.78;1.15;;;;;;;1.70;100.00;99180.41;4967435;28;20131;-58
2024/02/12 05:57:09;;;;;;;4.22;1.88;;;;;;;1.69;100.00;99187.00;4967091;28;20046;-58
2024/02/12 05:59:36;;;;;;;4.55;1.10;;;;;;;1.68;100.00;99186.19;4966440;28;20071;-56
2024/02/12 06:02:04;;;;;;;11.88;1.85;;;;;;;1.67;100.00;99200.16;4967308;28;20363;-57
2024/02/12 06:04:32;;;;;;;4.93;1.23;;;;;;;1.66;100.00;99204.81;4967287;28;20058;-57
2024/02/12 06:07:00;;;;;;;3.25;1.00;;;;;;;1.67;100.00;99205.59;4967057;28;20055;-58
2024/02/12 06:09:28;;;;;;;4.20;1.10;;;;;;;1.65;100.00;99211.41;4965799;28;20051;-57
2024/02/12 06:11:56;;;;;;;3.78;0.95;;;;;;;1.65;100.00;99214.13;4966445;28;20535;-57
2024/02/12 06:14:23;;;;;;;4.88;1.00;;;;;;;1.65;100.00;99213.31;4967284;28;20047;-57
2024/02/12 06:16:51;;;;;;;4.95;1.08;;;;;;;1.64;100.00;99212.50;4967529;28;20051;-54
2024/02/12 06:19:18;;;;;;;2.92;0.80;;;;;;;1.64;100.00;99212.50;4954207;28;20394;-55
2024/02/12 06:21:45;;;;;;;3.75;0.90;;;;;;;1.65;100.00;99222.31;4966682;28;20042;-57
2024/02/12 06:24:13;;;;;;;2.10;0.90;;;;;;;1.65;100.00;99218.78;4967049;28;20062;-56
2024/02/12 06:26:42;;;;;;;4.80;1.17;;;;;;;1.65;100.00;99229.69;4965531;28;20754;-56
2024/02/12 06:29:14;;;;;;;4.55;0.90;;;;;;;1.66;100.00;99225.84;4966516;28;20047;-54
2024/02/12 06:31:42;;;;;;;3.90;1.10;;;;;;;1.66;100.00;99232.09;4977052;28;20057;-56
2024/02/12 06:34:11;;;;;;;2.60;0.93;;;;;;;1.67;100.00;99241.88;4967827;28;20054;-56
2024/02/12 06:36:38;;;;;;;4.38;0.75;;;;;;;1.67;100.00;99239.16;4985095;28;20047;-53
2024/02/12 06:39:06;;;;;;;9.95;0.85;;;;;;;1.67;100.00;99243.78;4970164;28;20051;-58
2024/02/12 06:41:34;;;;;;;4.03;0.80;;;;;;;1.66;100.00;99256.66;4964346;28;20047;-58
2024/02/12 06:44:01;;;;;;;5.60;2.80;;;;;;;1.67;100.00;99260.16;4969710;28;20615;-58
2024/02/12 06:46:29;;;;;;;3.55;1.30;;;;;;;1.68;100.00;99265.31;4969995;28;20069;-57
2024/02/12 06:48:56;;;;;;;2.22;0.95;;;;;;;1.68;100.00;99256.31;4970430;28;20053;-57
2024/02/12 06:51:24;;;;;;;7.93;1.13;;;;;;;1.68;100.00;99273.50;4969239;28;20039;-56
2024/02/12 06:53:51;;;;;;;1.42;0.73;;;;;;;1.68;100.00;99269.97;4970262;28;20051;-57
2024/02/12 06:56:19;;;;;;;7.38;0.80;;;;;;;1.67;100.00;99265.63;4970163;28;20046;-58
2024/02/12 06:58:47;;;;;;;3.83;0.73;;;;;;;1.65;100.00;99274.13;4969738;28;20046;-55
2024/02/12 07:01:15;;;;;;;7.05;0.90;;;;;;;1.65;100.00;99279.59;4969120;28;20432;-57
2024/02/12 07:03:46;;;;;;;2.85;0.93;;;;;;;1.64;100.00;99286.16;4970034;28;20579;-58
2024/02/12 07:06:14;;;;;;;4.97;1.00;;;;;;;1.65;100.00;99287.78;4969651;28;20051;-57
2024/02/12 07:08:41;;;;;;;1.05;0.80;;;;;;;1.66;100.00;99292.13;4969740;28;20058;-57
2024/02/12 07:11:15;;;;;;;2.80;0.82;;;;;;;1.66;100.00;99292.13;4969277;28;20058;-57
2024/02/12 07:13:43;;;;;;;2.55;0.82;;;;;;;1.68;100.00;99300.78;4969171;28;20528;-58
2024/02/12 07:16:18;;;;;;;4.13;0.80;;;;;;;1.67;100.00;99301.88;4957741;28;20039;-58
2024/02/12 07:18:46;;;;;;;6.28;1.38;;;;;;;1.69;100.00;99299.66;4969697;28;20818;-58
2024/02/12 07:21:14;;;;;;;4.28;1.02;;;;;;;1.70;100.00;99300.44;4968924;28;20051;-57
2024/02/12 07:23:42;;;;;;;11.68;1.40;;;;;;;1.70;100.00;99309.44;4969753;28;20066;-56
2024/02/12 07:26:09;;;;;;;7.05;1.40;;;;;;;1.73;100.00;99321.63;4969352;28;20058;-58
2024/02/12 07:28:36;;;;;;;6.05;1.73;;;;;;;1.73;100.00;99319.72;4969038;28;20047;-58
2024/02/12 07:31:07;;;;;;;5.53;1.00;;;;;;;1.75;100.00;99312.00;4968242;28;20051;-57
2024/02/12 07:33:35;;;;;;;4.57;1.27;;;;;;;1.76;100.00;99319.06;4968526;28;20082;-59
2024/02/12 07:36:04;;;;;;;5.57;1.13;;;;;;;1.77;100.00;99331.56;4968054;28;20519;-53
2024/02/12 07:38:32;;;;;;;4.57;1.25;;;;;;;1.77;100.00;99337.03;4966208;28;20049;-56
2024/02/12 07:41:01;;;;;;;8.07;1.42;;;;;;;1.78;100.00;99335.91;4968992;28;20065;-58
2024/02/12 07:43:29;;;;;;;5.80;0.88;;;;;;;1.79;100.00;99336.72;4968652;28;20054;-58
2024/02/12 07:45:56;;;;;;;8.27;1.63;;;;;;;1.81;100.00;99343.47;4968077;28;20758;-57
2024/02/12 07:48:24;;;;;;;10.73;1.48;;;;;;;1.81;100.00;99346.19;4967293;28;20047;-56
2024/02/12 07:50:54;;;;;;;7.93;1.00;;;;;;;1.83;100.00;99345.84;4969162;28;20397;-58
2024/02/12 07:53:25;;;;;;;3.50;1.10;;;;;;;1.83;100.00;99351.31;4968967;28;20053;-57
2024/02/12 07:55:52;;;;;;;11.95;3.15;;;;;;;1.85;100.00;99360.78;4968708;28;20039;-58
2024/02/12 07:58:21;;;;;;;6.32;0.95;;;;;;;1.86;100.00;99364.31;4969159;28;20057;-54
2024/02/12 08:00:49;;;;;;;5.45;2.03;;;;;;;1.88;100.00;99372.97;4968307;28;20050;-54
2024/02/12 08:03:18;;;;;;;2.95;0.98;;;;;;;1.91;100.00;99382.47;4968540;28;20051;-61
2024/02/12 08:05:46;;;;;;;1.80;0.80;;;;;;;1.93;100.00;99385.69;4955633;28;20055;-57
2024/02/12 08:08:14;;;;;;;7.20;1.27;;;;;;;1.96;100.00;99387.78;4967318;28;20067;-57
2024/02/12 08:10:43;;;;;;;7.10;1.13;;;;;;;1.98;100.00;99390.97;4968020;28;20050;-58
2024/02/12 08:13:10;;;;;;;7.53;0.93;;;;;;;2.00;100.00;99389.53;4967050;28;20066;-53
2024/02/12 08:15:39;;;;;;;12.07;1.38;;;;;;;2.02;100.00;99392.72;4969892;28;20158;-56
2024/02/12 08:18:06;;;;;;;4.40;0.85;;;;;;;2.05;100.00;99402.19;4960177;28;20047;-58
2024/02/12 08:20:35;;;;;;;2.92;1.13;;;;;;;2.07;100.00;99402.69;4969651;28;20058;-58
2024/02/12 08:23:06;;;;;;;6.78;1.02;;;;;;;2.08;100.00;99402.38;4969704;28;20378;-55
2024/02/12 08:25:38;;;;;;;9.07;1.23;;;;;;;2.08;100.00;99405.09;4968543;28;20058;-56
2024/02/12 08:28:05;;;;;;;2.05;1.08;;;;;;;2.10;100.00;99411.03;4969354;28;20057;-56
2024/02/12 08:30:33;;;;;;;8.98;1.13;;;;;;;2.14;100.00;99405.75;4968455;28;20043;-57
2024/02/12 08:33:00;;;;;;;2.75;0.98;;;;;;;2.16;100.00;99401.56;4970448;28;20058;-57
2024/02/12 08:35:28;;;;;;;4.03;1.23;;;;;;;2.21;100.00;99403.31;4968358;28;20058;-59
2024/02/12 08:37:55;;;;;;;6.15;1.20;;;;;;;2.23;100.00;99398.34;4967804;28;20043;-60
2024/02/12 08:40:23;;;;;;;7.35;1.20;;;;;;;2.26;100.00;99397.69;4967949;28;20385;-57
2024/02/12 08:42:51;;;;;;;6.82;1.00;;;;;;;2.28;100.00;99406.34;4967929;28;20061;-58
2024/02/12 08:45:19;;;;;;;6.53;1.90;;;;;;;2.31;100.00;99405.72;4967812;28;20058;-57
2024/02/12 08:47:46;;;;;;;5.80;1.17;;;;;;;2.33;100.00;99407.00;4966647;28;20062;-58
2024/02/12 08:50:15;;;;;;;6.13;1.17;;;;;;;2.36;100.00;99430.13;4968084;28;20058;-56
2024/02/12 08:52:43;;;;;;;5.05;0.70;;;;;;;2.38;100.00;99406.81;4968156;28;20416;-58
2024/02/12 08:55:11;;;;;;;10.38;1.50;;;;;;;2.40;100.00;99410.06;4967913;28;20050;-58
2024/02/12 08:57:44;;;;;;;5.78;1.55;;;;;;;2.44;100.00;99415.66;4966628;28;20069;-59
2024/02/12 09:00:13;;;;;;;12.77;2.50;;;;;;;2.49;100.00;99418.22;4966808;28;20532;-57
2024/02/12 09:02:43;;;;;;;3.28;0.90;;;;;;;2.54;100.00;99420.00;4967494;28;20074;-58
2024/02/12 09:05:11;;;;;;;5.35;1.35;;;;;;;2.57;100.00;99422.84;4967870;28;20046;-58
2024/02/12 09:07:40;;;;;;;4.90;1.50;;;;;;;2.60;100.00;99424.94;4965448;28;20058;-58
2024/02/12 09:10:11;;;;;;;2.30;1.60;;;;;;;2.62;100.00;99422.69;4967580;28;20051;-58
2024/02/12 09:12:40;;;;;;;;;;;;;;;2.66;100.00;99428.31;4967951;28;20051;-58
2024/02/12 09:15:20;;;;;;;2.88;0.77;;;;;;;2.68;100.00;99435.06;4967826;28;19941;-58
2024/02/12 09:17:48;;;;;;;4.10;1.05;;;;;;;2.72;100.00;99427.84;4965968;28;20410;-58
2024/02/12 09:20:16;;;;;;;8.88;1.08;;;;;;;2.77;100.00;99424.91;4967704;28;20050;-57
2024/02/12 09:22:44;;;;;;;4.18;1.20;;;;;;;2.81;100.00;99438.72;4967719;28;20046;-58
2024/02/12 09:25:12;;;;;;;6.90;0.80;;;;;;;2.84;100.00;99447.06;4967446;28;20405;-57
2024/02/12 09:27:46;;;;;;;5.80;0.70;;;;;;;2.88;100.00;99442.59;4967068;28;20066;-58
2024/02/12 09:30:16;;;;;;;1.52;0.68;;;;;;;2.93;100.00;99449.78;4967363;28;20054;-57
2024/02/12 09:32:46;;;;;;;5.82;1.00;;;;;;;2.96;100.00;99444.50;4967243;28;20618;-58
2024/02/12 09:35:17;;;;;;;1.75;0.90;;;;;;;2.99;100.00;99453.97;4967411;28;20050;-58
2024/02/12 09:37:47;;;;;;;3.65;0.98;;;;;;;3.03;100.00;99443.97;4962229;28;20058;-59
2024/02/12 09:40:17;;;;;;;2.90;0.77;;;;;;;3.05;100.00;99453.44;4966755;28;20059;-59
2024/02/12 09:42:46;;;;;;;2.47;0.82;;;;;;;3.08;100.00;99447.31;4967553;28;20460;-60
2024/02/12 09:45:16;;;;;;;4.40;0.80;;;;;;;3.13;100.00;99448.25;4955252;28;20813;-59
2024/02/12 09:47:44;;;;;;;3.03;0.95;;;;;;;3.15;100.00;99452.28;4967361;28;20058;-56
2024/02/12 09:50:13;;;;;;;3.33;0.35;;;;;;;3.20;100.00;99456.78;4967259;28;20065;-59
2024/02/12 09:52:44;;;;;;;8.45;1.15;;;;;;;3.27;100.00;99466.06;4966691;28;20406;-59
2024/02/12 09:55:12;;;;;;;5.85;0.80;;;;;;;3.32;100.00;99457.69;4967300;28;20051;-59
2024/02/12 09:57:40;;;;;;;13.13;2.13;;;;;;;3.36;100.00;99458.63;4967081;28;20060;-58
2024/02/12 10:00:10;;;;;;;3.13;1.00;;;;;;;3.39;100.00;99462.66;4966973;28;20059;-57
2024/02/12 10:02:39;;;;;;;4.20;1.38;;;;;;;3.44;100.00;99465.22;4966812;28;20633;-59
2024/02/12 10:05:18;;;;;;;3.47;0.80;;;;;;;3.49;100.00;99459.56;4960828;28;20387;-59
2024/02/12 10:07:46;;;;;;;9.35;0.68;;;;;;;3.52;100.00;99461.63;4966517;28;20058;-59
2024/02/12 10:10:14;;;;;;;1.13;0.70;;;;;;;3.57;100.00;99459.47;4969569;28;20051;-59
2024/02/12 10:12:42;;;;;;;4.47;0.45;;;;;;;3.62;100.00;99467.53;4970846;28;20737;-59
2024/02/12 10:15:13;;;;;;;1.38;0.70;;;;;;;3.65;100.00;99466.84;4969379;28;20054;-57
2024/02/12 10:17:42;;;;;;;2.28;0.40;;;;;;;3.69;100.00;99464.25;4958529;28;20046;-58
2024/02/12 10:20:10;;;;;;;3.83;0.70;;;;;;;3.73;100.00;99478.91;4970732;28;20504;-59
2024/02/12 10:22:41;;;;;;;1.38;0.63;;;;;;;3.77;100.00;99489.97;4969171;28;20062;-59
2024/02/12 10:25:11;;;;;;;0.82;0.50;;;;;;;3.82;100.00;99485.13;4952672;28;20592;-58
2024/02/12 10:27:39;;;;;;;9.38;0.80;;;;;;;3.85;100.00;99480.91;4968340;28;20058;-59
2024/02/12 10:30:07;;;;;;;3.00;0.80;;;;;;;3.88;100.00;99478.31;4970306;28;20054;-59
2024/02/12 10:32:35;;;;;;;3.72;0.98;;;;;;;3.93;100.00;99493.75;4970733;28;20133;-58
2024/02/12 10:35:08;;;;;;;5.45;0.75;;;;;;;3.95;100.00;99481.31;4970024;28;20512;-59
2024/02/12 10:37:36;;;;;;;2.65;0.93;;;;;;;3.99;100.00;99487.75;4970699;28;20055;-58
2024/02/12 10:40:12;;;;;;;4.05;0.80;;;;;;;4.02;100.00;99498.06;4969741;28;20074;-58
2024/02/12 10:42:52;;;;;;;6.85;0.88;;;;;;;4.06;100.00;99492.69;4970738;28;20560;-58
2024/02/12 10:45:20;;;;;;;5.07;0.63;;;;;;;4.10;100.00;99493.66;4970636;28;20054;-56
2024/02/12 10:47:48;;;;;;;5.50;1.45;;;;;;;4.12;100.00;99508.63;4969651;28;20058;-59
2024/02/12 10:50:17;;;;;;;2.35;0.95;;;;;;;4.17;100.00;99507.59;4970116;28;20067;-59
2024/02/12 10:52:48;;;;;;;3.65;1.00;;;;;;;4.21;100.00;99501.13;4970233;28;20061;-58
2024/02/12 10:55:16;;;;;;;9.90;1.35;;;;;;;4.25;100.00;99509.47;4970417;28;20047;-59
2024/02/12 10:57:46;;;;;;;1.92;0.55;;;;;;;4.31;100.00;99519.13;4969843;28;20061;-62
2024/02/12 11:00:20;;;;;;;3.15;0.60;;;;;;;4.38;100.00;99516.63;4970180;28;20682;-57
2024/02/12 11:02:50;;;;;;;5.38;0.90;;;;;;;4.45;100.00;99518.84;4967961;28;20524;-59
2024/02/12 11:05:18;;;;;;;1.48;0.50;;;;;;;4.52;100.00;99521.84;4969970;28;20065;-59
2024/02/12 11:07:45;;;;;;;7.25;0.95;;;;;;;4.54;100.00;99520.38;4969338;28;20043;-59
2024/02/12 11:10:18;;;;;;;2.30;0.70;;;;;;;4.57;100.00;99525.19;4969411;28;20043;-59
2024/02/12 11:12:47;;;;;;;2.28;0.43;;;;;;;4.60;100.00;99520.97;4969570;28;20598;-59
2024/02/12 11:15:24;;;;;;;11.85;1.27;;;;;;;4.62;100.00;99533.22;4969947;28;20059;-58
2024/02/12 11:17:53;;;;;;;3.85;0.70;;;;;;;4.66;100.00;99525.13;4965334;28;20047;-59
2024/02/12 11:20:23;;;;;;;1.80;0.65;;;;;;;4.70;100.00;99531.53;4960691;28;20058;-59
2024/02/12 11:22:52;;;;;;;2.10;0.50;;;;;;;4.73;100.00;99534.41;4969670;28;20053;-60
2024/02/12 11:25:20;;;;;;;2.38;0.50;;;;;;;4.81;100.00;99530.00;4969570;28;20692;-58
2024/02/12 11:27:54;;;;;;;5.35;1.10;;;;;;;4.89;100.00;99534.59;4969811;28;20069;-58
2024/02/12 11:30:21;;;;;;;3.38;1.55;;;;;;;4.98;100.00;99540.78;4968030;28;20077;-59
2024/02/12 11:32:49;;;;;;;4.72;0.50;;;;;;;5.12;100.00;99537.75;4984283;28;20051;-59
2024/02/12 11:35:19;;;;;;;1.92;0.45;;;;;;;5.23;100.00;99530.69;4952334;28;20047;-59
2024/02/12 11:37:56;;;;;;;5.00;0.77;;;;;;;5.25;100.00;99531.97;4969736;28;20057;-57
2024/02/12 11:40:23;;;;;;;6.35;0.60;;;;;;;5.27;100.00;99532.41;4956777;28;20062;-58
2024/02/12 11:42:51;;;;;;;1.52;0.40;;;;;;;5.29;100.00;99537.59;4968995;28;20050;-59
2024/02/12 11:45:20;;;;;;;1.85;0.32;;;;;;;5.29;100.00;99530.16;4969177;28;20051;-58
2024/02/12 11:47:47;;;;;;;2.72;0.63;;;;;;;5.31;100.00;99530.63;4969340;28;20051;-58
2024/02/12 11:50:25;;;;;;;4.22;1.35;;;;;;;5.32;100.00;99534.16;4968979;28;20062;-59
2024/02/12 11:52:53;;;;;;;5.38;0.68;;;;;;;5.34;100.00;99526.38;4968821;28;20062;-59
2024/02/12 11:55:22;;;;;;;3.15;0.60;;;;;;;5.38;100.00;99528.09;4967381;28;20378;-60